»·PEaware :: N8027F KFMN-KGJT

N8027F :: KFMN-KGJT

FLIGHT INFORMATION

Flight Status: Arrived
Operator: Privately registered:
United States
More flights under this callsign
Pilot: Timothy C. (14537)
Aircraft: BEECH AIRCRAFT SUPER KING AIR COMMUTER
(BE20)
More flights by this aircraft type
Origin: KFMN Four Corners Regl
United States
Destination: KGJT Walker
United States
More flights between these airports :: More routes between these airports
Route: RSK V391 CEZ V391 DVC
File this flight plan on PilotEdge
Remarks:
Altitude:
(Current/Filed)
16,500ft
Speed:
(Current/Filed)
220kts
Departed: 12-Nov-17 09:39 AM
Arrived: 12-Nov-17 10:22 AM
Distance/Time
Traveled:
144nm/0:43
Distance/Time
To Go:
Arrived

Flight Plot

Page will automatically refresh every two minutes.

Flight plan parsing failed; only flown route is shown


Map Options




Map Legend


Flown Route
Filed Route
Departure Airport
Arrival Airport
Navaid (VOR, NDB)
Fix

Horizontal Profiles

Position Reports

Time Latitude Longitude Heading Altitude Ground
Speed
12-Nov-17 09:41 36.740768 -108.221055 88 5509ft 6kts
12-Nov-17 09:42 36.740812 -108.218529 83 5509ft 0kts
12-Nov-17 09:43 36.741317 -108.217183 351 5509ft 6kts
12-Nov-17 09:44 36.741346 -108.243103 268 6103ft 144kts
12-Nov-17 09:45 36.774658 -108.269587 340 8525ft 160kts
12-Nov-17 09:46 36.820131 -108.285504 344 10665ft 175kts
12-Nov-17 09:47 36.865207 -108.296152 347 12840ft 169kts
12-Nov-17 09:48 36.917343 -108.304873 345 13558ft 223kts
12-Nov-17 09:49 36.982756 -108.318787 345 13689ft 248kts
12-Nov-17 09:50 37.049024 -108.332537 345 14472ft 240kts
12-Nov-17 09:51 37.112052 -108.344794 345 15205ft 237kts
12-Nov-17 09:52 37.175627 -108.356679 346 15501ft 249kts
12-Nov-17 09:53 37.243489 -108.369701 346 15498ft 257kts
12-Nov-17 09:54 37.311903 -108.382636 346 15494ft 259kts
12-Nov-17 09:55 37.381342 -108.395683 346 15492ft 259kts
12-Nov-17 09:56 37.448529 -108.408290 346 15492ft 259kts
12-Nov-17 09:57 37.518910 -108.421473 346 15500ft 259kts
12-Nov-17 09:58 37.589544 -108.434680 346 15501ft 259kts
12-Nov-17 09:59 37.655177 -108.446943 346 15501ft 259kts
12-Nov-17 10:00 37.723724 -108.459741 346 15501ft 259kts
12-Nov-17 10:01 37.793425 -108.472918 346 15379ft 263kts
12-Nov-17 10:02 37.860232 -108.485853 346 15326ft 261kts
12-Nov-17 10:03 37.917659 -108.444770 47 15334ft 283kts
12-Nov-17 10:04 37.961255 -108.375990 47 15329ft 284kts
12-Nov-17 10:05 38.006914 -108.303924 47 15328ft 284kts
12-Nov-17 10:06 38.059647 -108.239139 6 15361ft 269kts
12-Nov-17 10:07 38.127833 -108.239798 348 15583ft 259kts
12-Nov-17 10:08 38.198585 -108.250884 348 15485ft 267kts
12-Nov-17 10:09 38.270171 -108.262884 347 15356ft 270kts
12-Nov-17 10:10 38.341698 -108.274495 348 15355ft 268kts
12-Nov-17 10:11 38.412984 -108.286039 348 15356ft 268kts
12-Nov-17 10:12 38.485098 -108.297675 348 15442ft 265kts
12-Nov-17 10:13 38.552712 -108.308370 348 15539ft 265kts
12-Nov-17 10:14 38.620302 -108.318862 348 15504ft 238kts
12-Nov-17 10:15 38.677812 -108.332675 340 14753ft 202kts
12-Nov-17 10:16 38.731755 -108.345219 357 13501ft 210kts
12-Nov-17 10:17 38.788338 -108.338496 353 12198ft 212kts
12-Nov-17 10:18 38.841314 -108.355917 334 11154ft 198kts
12-Nov-17 10:19 38.892250 -108.380798 335 9948ft 203kts
12-Nov-17 10:20 38.944987 -108.410583 334 8448ft 212kts
12-Nov-17 10:21 38.995982 -108.439782 332 6862ft 196kts
12-Nov-17 10:22 39.040472 -108.470894 326 6636ft 184kts
12-Nov-17 10:23 39.080535 -108.509795 315 6533ft 188kts
12-Nov-17 10:24 39.113161 -108.558845 305 6065ft 190kts
12-Nov-17 10:25 39.144546 -108.587360 39 5764ft 132kts
12-Nov-17 10:26 39.139375 -108.552576 124 5129ft 105kts
12-Nov-17 10:27 39.130736 -108.536724 125 4861ft 27kts
12-Nov-17 10:28 39.128774 -108.535422 128 4861ft 11kts
12-Nov-17 10:29 39.127138 -108.532477 125 4860ft 14kts
12-Nov-17 10:30 39.124927 -108.531562 242 4861ft 11kts
12-Nov-17 10:31 39.124775 -108.531534 33 4861ft 0kts
12-Nov-17 10:32 39.124775 -108.531534 33 4861ft 0kts
12-Nov-17 10:33 39.124775 -108.531534 33 4861ft 0kts
12-Nov-17 10:34 39.124775 -108.531534 33 4861ft 0kts
12-Nov-17 10:35 39.124775 -108.531534 33 4861ft 0kts

Navigation Log

Ident Type
Flight plan parsing failed, navigation log unavailable